Airfield :







YOU CAN JOIN US ON...

 
LOGIN :

Register | Disclaimer

   EN    FR    IT 

 









Legend :    VFR   Marginal VFR   IFR   Intensive IFR   Very Intensive IFR
Visi :
Ceiling :
>= 8 km
>= 3000ft
5 to 8 km
1000 to 3000 ft
1500m to 5 km
500 to 1000 ft
800 to 1500m
200 to 500 ft
< 800m
< 200 ft
Symbols :   Thunderstorms  Fog  Heavy snow  Heavy precipitations  Wind > 20 kt







- Airport Elevation : 522 ft
- IATA code : YBG


CYBG - CFB Bagotville

CURRENT METAR :
  • 251300Z 09008KT 25SM FEW010 FEW020 OVC045 02/00 A2996 RMK SF1SC2SC6 SLP154

EXPIRED METARs :
  • 251200Z 12007KT 25SM MIFG FEW010 FEW035 BKN048 02/M00 A2997 RMK SF1SC2SC5 SLP158
  • 251100Z 11007KT 15SM MIFG FEW010 BKN034 BKN049 01/M00 A2996 RMK SF1SC5SC2 SLP154

TAF TAF CYBG
Valid from the 25 at 12:00 until the 26 at 12:00 UTC


251130Z 2512/2612 10008KT P6SM FEW010 BKN030
TEMPO 2512/2514 5SM BR OVC010
BECMG 2514/2516 10012KT
FM252300 09010KT P6SM FEW010 OVC030
TEMPO 2523/2605 6SM -RA -DZ BR OVC010
FM260500 09006KT 5SM BR OVC008
FM261000 VRB03KT P6SM OVC015 RMK NXT FCST BY 251500Z
CZUL FIR / North America



MET'MAP, your aeronautical weather chart ! - Copyright ORBIFLY December 2007 - Disclaimer

ORBIFLY MET'MAP TEAM :

Programming & Development : Alexandra Zaïnal
Concept & Development : Baudouin d'Aumeries
Co-Development & Prog : Marc-Olivier Méhu
Technical & hardware support : Manuel Goepfert

Contact : metmap@orbifly.com




SOURCES & CREDITS :

   NOAA